Time;durP1;ratioP1;P1;durP2;ratioP2;P2;SDS_P1;SDS_P2;PMS_P1;PMS_P2;Temp;Humidity;BMP_temperature;BMP_pressure;BME280_temperature;BME280_humidity;BME280_pressure;Samples;Min_cycle;Max_cycle;Signal;HPM_P1;HPM_P2
2023/12/07 00:02:16;;;;;;;18.45;11.75;;;;;;;5.98;71.19;94605.53;5068030;28;20024;-76
2023/12/07 00:04:42;;;;;;;20.90;11.57;;;;;;;5.97;70.88;94609.47;5067148;28;20135;-77
2023/12/07 00:07:07;;;;;;;15.48;11.25;;;;;;;5.98;71.09;94608.28;5068334;28;20423;-76
2023/12/07 00:09:32;;;;;;;18.42;12.13;;;;;;;5.99;70.92;94606.31;5066706;28;20127;-77
2023/12/07 00:11:58;;;;;;;17.10;11.50;;;;;;;5.99;70.91;94609.03;5068224;28;20409;-76
2023/12/07 00:14:23;;;;;;;19.23;10.88;;;;;;;5.98;70.87;94610.22;5066865;28;20032;-77
2023/12/07 00:16:49;;;;;;;14.98;10.35;;;;;;;6.00;70.62;94614.06;5068508;28;20058;-77
2023/12/07 00:19:14;;;;;;;19.33;11.88;;;;;;;6.02;70.78;94614.44;5068267;28;20451;-77
2023/12/07 00:21:39;;;;;;;21.42;13.00;;;;;;;6.04;70.57;94614.03;5067519;28;20562;-76
2023/12/07 00:24:05;;;;;;;22.98;13.55;;;;;;;6.02;70.70;94611.72;5067961;28;20036;-76
2023/12/07 00:26:30;;;;;;;20.65;13.43;;;;;;;6.01;70.62;94612.88;5066526;28;20060;-76
2023/12/07 00:28:56;;;;;;;17.42;10.82;;;;;;;6.03;70.62;94607.81;5069236;28;20548;-77
2023/12/07 00:31:21;;;;;;;17.73;11.07;;;;;;;6.01;70.61;94612.88;5077499;28;20027;-77
2023/12/07 00:33:47;;;;;;;19.48;11.15;;;;;;;5.97;70.73;94620.38;5067454;28;20146;-76
2023/12/07 00:36:12;;;;;;;18.70;11.35;;;;;;;5.97;70.76;94614.16;5067055;28;20048;-78
2023/12/07 00:38:38;;;;;;;16.40;10.05;;;;;;;5.97;70.85;94616.88;5065802;28;20031;-78
2023/12/07 00:41:03;;;;;;;17.98;10.27;;;;;;;5.98;70.94;94611.00;5067544;28;20034;-75
2023/12/07 00:43:29;;;;;;;17.90;11.10;;;;;;;6.01;70.84;94614.84;5066367;28;20086;-75
2023/12/07 00:45:54;;;;;;;17.85;11.25;;;;;;;5.88;70.91;94601.00;5068985;28;20111;-76
2023/12/07 00:48:19;;;;;;;15.82;11.15;;;;;;;5.96;71.14;94618.81;5065973;28;20398;-75
2023/12/07 00:50:45;;;;;;;18.13;11.80;;;;;;;5.98;70.91;94611.00;5067414;28;20470;-76
2023/12/07 00:53:10;;;;;;;17.38;10.93;;;;;;;5.94;70.91;94604.81;5069594;28;20069;-76
2023/12/07 00:55:36;;;;;;;18.77;11.50;;;;;;;5.95;70.78;94606.38;5067057;28;20025;-76
2023/12/07 00:58:01;;;;;;;20.50;11.55;;;;;;;5.91;71.03;94602.13;5066742;28;20025;-76
2023/12/07 01:00:27;;;;;;;18.75;11.63;;;;;;;5.92;71.27;94606.44;5066196;28;20036;-76
2023/12/07 01:02:52;;;;;;;19.33;11.35;;;;;;;5.93;71.02;94600.56;5066133;28;20056;-76
2023/12/07 01:05:18;;;;;;;16.90;10.57;;;;;;;5.95;71.27;94603.63;5065700;28;20028;-78
2023/12/07 01:07:43;;;;;;;17.08;11.63;;;;;;;5.93;70.87;94606.00;5049429;28;20359;-76
2023/12/07 01:10:08;;;;;;;18.05;12.32;;;;;;;5.97;70.94;94609.47;5065706;28;20097;-78
2023/12/07 01:12:35;;;;;;;16.52;10.43;;;;;;;6.07;70.55;94602.25;5066771;28;20127;-76
2023/12/07 01:15:01;;;;;;;20.13;12.02;;;;;;;5.99;70.84;94603.59;5066470;28;20047;-77
2023/12/07 01:17:26;;;;;;;21.20;12.30;;;;;;;5.94;70.63;94604.81;5064654;28;20099;-77
2023/12/07 01:19:51;;;;;;;18.25;12.05;;;;;;;5.94;70.60;94596.63;5064897;28;20108;-77
2023/12/07 01:22:17;;;;;;;19.73;12.80;;;;;;;5.96;70.89;94607.13;5065774;28;20025;-77
2023/12/07 01:24:43;;;;;;;15.07;10.15;;;;;;;5.93;70.70;94602.50;5066853;28;20479;-77
2023/12/07 01:27:09;;;;;;;16.77;10.85;;;;;;;5.98;70.74;94605.53;5065437;28;20048;-77
2023/12/07 01:29:34;;;;;;;18.02;11.10;;;;;;;5.94;70.55;94595.88;5048679;28;20102;-77
2023/12/07 01:31:59;;;;;;;19.10;12.45;;;;;;;5.95;70.64;94602.88;5064095;28;20074;-76
2023/12/07 01:34:25;;;;;;;18.00;11.77;;;;;;;6.01;70.13;94598.47;5065562;28;20605;-77
2023/12/07 01:36:50;;;;;;;19.75;12.52;;;;;;;6.00;70.59;94589.53;5064738;28;20085;-76
2023/12/07 01:39:15;;;;;;;19.77;11.93;;;;;;;5.96;70.46;94598.94;5064160;28;20546;-76
2023/12/07 01:41:41;;;;;;;20.13;13.02;;;;;;;5.91;70.69;94600.22;5065984;28;20028;-76
2023/12/07 01:44:06;;;;;;;16.58;11.80;;;;;;;5.91;70.96;94596.66;5065254;28;20475;-75
2023/12/07 01:46:33;;;;;;;17.90;12.52;;;;;;;5.95;70.47;94584.53;5066082;28;20029;-76
2023/12/07 01:48:58;;;;;;;18.40;11.45;;;;;;;5.95;70.46;94590.00;5063429;28;20029;-76
2023/12/07 01:51:23;;;;;;;17.90;11.52;;;;;;;6.00;70.06;94588.75;5066081;28;20453;-76
2023/12/07 01:53:49;;;;;;;16.23;10.20;;;;;;;5.93;70.43;94589.66;5065483;28;20094;-77
2023/12/07 01:56:15;;;;;;;16.67;10.88;;;;;;;5.93;70.40;94586.91;5047579;28;20028;-77
2023/12/07 01:58:41;;;;;;;20.77;11.73;;;;;;;5.91;70.18;94581.13;5065436;28;20140;-76
2023/12/07 02:01:07;;;;;;;18.27;11.50;;;;;;;5.92;70.59;94587.34;5065219;28;20071;-76
2023/12/07 02:03:32;;;;;;;16.65;10.07;;;;;;;5.91;70.57;94585.75;5064255;28;20036;-76
2023/12/07 02:05:58;;;;;;;17.80;11.15;;;;;;;5.84;70.68;94575.72;5065412;28;20096;-76
2023/12/07 02:08:24;;;;;;;16.00;10.70;;;;;;;5.89;70.95;94582.66;5065005;28;20157;-76
2023/12/07 02:10:50;;;;;;;17.30;10.43;;;;;;;5.87;70.80;94580.38;5063427;28;20082;-77
2023/12/07 02:13:15;;;;;;;18.73;11.00;;;;;;;5.88;70.78;94583.84;5065685;28;20027;-76
2023/12/07 02:15:41;;;;;;;18.17;10.98;;;;;;;5.88;71.02;94581.91;5065456;28;20021;-76
2023/12/07 02:18:11;;;;;;;16.88;9.55;;;;;;;5.81;70.70;94566.44;5063556;28;20169;-76
2023/12/07 02:20:55;;;;;;;16.60;10.50;;;;;;;5.83;70.83;94577.69;5065153;28;20025;-77
2023/12/07 02:23:21;;;;;;;16.08;9.90;;;;;;;5.85;70.37;94580.00;5063432;28;20071;-76
2023/12/07 02:29:09;;;;;;;14.02;8.05;;;;;;;5.91;70.22;94578.38;5065960;28;20047;-77
2023/12/07 02:31:34;;;;;;;15.50;9.10;;;;;;;5.87;70.18;94594.00;5064846;28;20021;-77
2023/12/07 02:33:59;;;;;;;11.77;8.30;;;;;;;5.87;70.07;94585.81;5064494;28;20556;-77
2023/12/07 02:36:28;;;;;;;14.13;9.23;;;;;;;5.83;70.27;94577.69;5064796;28;20031;-77
2023/12/07 02:38:56;;;;;;;16.30;10.40;;;;;;;5.83;70.34;94574.19;5064795;28;20035;-77
2023/12/07 02:41:22;;;;;;;14.50;8.82;;;;;;;5.91;70.08;94577.56;5064933;28;20025;-77
2023/12/07 02:43:47;;;;;;;15.13;9.00;;;;;;;5.86;70.45;94578.81;5063813;28;20415;-77
2023/12/07 02:46:13;;;;;;;13.13;8.73;;;;;;;5.87;70.71;94569.44;5063939;28;20035;-77
2023/12/07 02:48:38;;;;;;;12.88;7.68;;;;;;;5.88;70.67;94570.22;5062881;28;20071;-75
2023/12/07 02:51:04;;;;;;;10.98;7.40;;;;;;;5.87;70.34;94566.72;5065534;28;20351;-75
2023/12/07 02:53:29;;;;;;;14.93;8.90;;;;;;;5.95;70.03;94572.84;5064242;28;20025;-76
2023/12/07 02:55:55;;;;;;;15.35;9.23;;;;;;;5.94;70.04;94568.59;5065837;28;20016;-75
2023/12/07 02:58:20;;;;;;;14.77;9.13;;;;;;;6.01;69.60;94580.13;5062980;28;20024;-77
2023/12/07 03:00:46;;;;;;;13.43;9.00;;;;;;;6.00;69.60;94577.84;5065368;28;20395;-76
2023/12/07 03:03:11;;;;;;;13.85;8.95;;;;;;;5.97;69.63;94573.22;5065101;28;20032;-77
2023/12/07 03:05:36;;;;;;;14.52;10.13;;;;;;;5.96;69.76;94575.16;5064515;28;20031;-75
2023/12/07 03:08:02;;;;;;;12.57;8.52;;;;;;;5.97;69.79;94578.69;5065172;28;20115;-75
2023/12/07 03:10:27;;;;;;;14.60;8.70;;;;;;;5.97;69.63;94576.72;5064312;28;20517;-75
2023/12/07 03:12:53;;;;;;;12.82;8.82;;;;;;;6.00;69.40;94580.56;5064125;28;20477;-76
2023/12/07 03:15:18;;;;;;;12.32;8.63;;;;;;;5.99;69.48;94579.03;5064216;28;20032;-77
2023/12/07 03:17:43;;;;;;;13.70;9.43;;;;;;;5.93;69.86;94581.47;5065409;28;20028;-76
2023/12/07 03:20:10;;;;;;;12.63;8.00;;;;;;;5.91;69.82;94585.75;5064453;28;20591;-76
2023/12/07 03:22:35;;;;;;;18.98;9.95;;;;;;;5.95;69.55;94581.03;5063279;28;20073;-77
2023/12/07 03:25:00;;;;;;;14.55;9.35;;;;;;;5.91;69.72;94574.84;5065190;28;20029;-77
2023/12/07 03:27:27;;;;;;;16.95;10.23;;;;;;;5.85;69.67;94577.28;5066790;28;20546;-76
2023/12/07 03:29:53;;;;;;;16.88;10.40;;;;;;;5.93;69.80;94595.09;5068767;28;20116;-76
2023/12/07 03:32:18;;;;;;;16.25;10.68;;;;;;;5.92;69.68;94590.84;5067922;28;20103;-75
2023/12/07 03:34:43;;;;;;;15.32;9.65;;;;;;;5.87;70.27;94594.00;5068700;28;20202;-76
2023/12/07 03:37:09;;;;;;;15.10;10.38;;;;;;;5.84;70.10;94592.84;5067627;28;20105;-76
2023/12/07 03:39:34;;;;;;;17.77;10.15;;;;;;;5.84;70.36;94589.38;5068164;28;20494;-76
2023/12/07 03:42:00;;;;;;;17.05;10.07;;;;;;;5.85;70.11;94604.56;5068497;28;20025;-76
2023/12/07 03:44:26;;;;;;;16.95;9.70;;;;;;;5.81;70.49;94601.13;5067977;28;20097;-77
2023/12/07 03:46:52;;;;;;;17.00;10.07;;;;;;;5.85;70.42;94604.56;5068363;28;20471;-76
2023/12/07 03:49:17;;;;;;;14.55;9.45;;;;;;;5.84;70.33;94594.81;5066235;28;20021;-76
2023/12/07 03:51:43;;;;;;;14.48;9.25;;;;;;;5.83;70.40;94601.47;5068338;28;20119;-77
2023/12/07 03:54:08;;;;;;;17.17;9.93;;;;;;;5.88;70.31;94597.50;5067495;28;20033;-76
2023/12/07 03:56:33;;;;;;;16.88;10.35;;;;;;;5.86;70.29;94592.47;5068515;28;20017;-78
2023/12/07 03:58:59;;;;;;;16.27;9.73;;;;;;;5.88;70.29;94592.03;5067548;28;20425;-75
2023/12/07 04:01:25;;;;;;;15.38;9.20;;;;;;;5.88;70.30;94594.78;5066483;28;20025;-76
2023/12/07 04:03:54;;;;;;;14.80;9.63;;;;;;;5.86;70.51;94595.19;5067984;28;20105;-76
2023/12/07 04:06:20;;;;;;;17.35;9.27;;;;;;;5.86;70.46;94595.19;5068991;28;20031;-75
2023/12/07 04:08:46;;;;;;;15.02;9.10;;;;;;;5.88;70.30;94594.78;5067922;28;20028;-76
2023/12/07 04:11:12;;;;;;;15.57;9.57;;;;;;;5.93;70.13;94603.28;5067101;28;20027;-76
2023/12/07 04:13:37;;;;;;;14.80;9.07;;;;;;;5.96;69.75;94604.41;5069368;28;20028;-76
2023/12/07 04:16:03;;;;;;;17.55;9.77;;;;;;;5.95;69.71;94597.41;5068117;28;20025;-77
2023/12/07 04:18:29;;;;;;;13.73;8.90;;;;;;;5.90;70.02;94601.34;5066402;28;20032;-76
2023/12/07 04:20:54;;;;;;;13.68;8.82;;;;;;;5.88;69.87;94603.72;5067270;28;20033;-77
2023/12/07 04:23:19;;;;;;;14.77;9.45;;;;;;;5.91;70.03;94607.56;5067504;28;20032;-76
2023/12/07 04:25:45;;;;;;;15.25;9.63;;;;;;;5.86;70.21;94606.09;5067433;28;20020;-76
2023/12/07 04:28:10;;;;;;;16.40;10.32;;;;;;;5.74;70.25;94598.50;5066647;28;20065;-77
2023/12/07 04:30:36;;;;;;;17.30;10.48;;;;;;;5.83;70.08;94610.41;5067460;28;20108;-76
2023/12/07 04:33:01;;;;;;;15.93;10.02;;;;;;;5.83;70.03;94612.38;5065173;28;20121;-76
2023/12/07 04:35:28;;;;;;;20.40;11.80;;;;;;;5.85;70.11;94618.97;5067336;28;20040;-76
2023/12/07 04:37:53;;;;;;;17.23;10.68;;;;;;;5.83;70.19;94618.59;5065547;28;20031;-77
2023/12/07 04:40:19;;;;;;;19.90;11.55;;;;;;;5.87;69.94;94626.75;5065753;28;20107;-77
2023/12/07 04:42:44;;;;;;;17.42;11.15;;;;;;;5.94;69.75;94629.38;5065437;28;20495;-77
2023/12/07 04:45:10;;;;;;;17.95;10.73;;;;;;;5.90;69.84;94625.91;5066830;28;20197;-77
2023/12/07 04:47:35;;;;;;;17.58;10.93;;;;;;;5.88;69.94;94622.06;5066987;28;20028;-76
2023/12/07 04:50:01;;;;;;;16.60;11.50;;;;;;;5.88;69.77;94631.00;5066236;28;20021;-76
2023/12/07 04:52:26;;;;;;;16.77;9.57;;;;;;;5.89;69.75;94629.06;5067157;28;20114;-77
2023/12/07 04:54:51;;;;;;;16.88;10.55;;;;;;;5.89;69.70;94632.53;5066240;28;20032;-78
2023/12/07 04:57:17;;;;;;;18.98;11.25;;;;;;;5.91;69.58;94637.59;5067199;28;20090;-76
2023/12/07 04:59:46;;;;;;;17.77;12.30;;;;;;;5.93;69.67;94635.25;5066384;28;20036;-76
2023/12/07 05:02:15;;;;;;;20.05;12.05;;;;;;;5.89;69.83;94634.50;5066584;28;20056;-76
2023/12/07 05:04:40;;;;;;;18.25;11.85;;;;;;;5.89;69.91;94632.53;5065304;28;20039;-77
2023/12/07 05:07:06;;;;;;;19.10;11.45;;;;;;;5.88;69.98;94627.50;5065010;28;20040;-76
2023/12/07 05:09:31;;;;;;;16.38;11.20;;;;;;;5.90;69.78;94634.09;5069129;28;20064;-77
2023/12/07 05:11:58;;;;;;;15.35;10.65;;;;;;;5.88;69.78;94633.72;5070578;28;20032;-78
2023/12/07 05:14:23;;;;;;;17.95;11.50;;;;;;;5.87;70.08;94637.66;5070720;28;20025;-77
2023/12/07 05:16:52;;;;;;;20.42;12.15;;;;;;;5.87;70.07;94643.09;5067310;28;20103;-77
2023/12/07 05:19:20;;;;;;;22.67;13.15;;;;;;;5.86;70.17;94644.31;5067207;28;20495;-77
2023/12/07 05:21:46;;;;;;;20.00;12.88;;;;;;;5.88;69.84;94638.44;5066846;28;20028;-78
2023/12/07 05:24:12;;;;;;;22.33;13.25;;;;;;;5.81;70.31;94634.63;5066433;28;20204;-76
2023/12/07 05:26:37;;;;;;;21.05;12.88;;;;;;;5.81;69.95;94637.34;5066571;28;20041;-78
2023/12/07 05:29:03;;;;;;;20.00;12.18;;;;;;;5.78;70.11;94653.75;5065449;28;20023;-78
2023/12/07 05:31:28;;;;;;;17.92;11.13;;;;;;;5.79;70.13;94647.91;5066835;28;20103;-78
2023/12/07 05:33:55;;;;;;;18.90;11.77;;;;;;;5.84;69.91;94652.09;5065382;28;20049;-78
2023/12/07 05:36:20;;;;;;;21.23;12.25;;;;;;;5.82;69.95;94654.50;5066306;28;20028;-79
2023/12/07 05:38:46;;;;;;;21.42;13.32;;;;;;;5.81;69.85;94661.91;5065699;28;20208;-80
2023/12/07 05:41:12;;;;;;;16.95;11.35;;;;;;;5.80;69.76;94660.38;5065797;28;20082;-78
2023/12/07 05:43:41;;;;;;;19.23;11.10;;;;;;;5.82;69.88;94652.53;5066196;28;20112;-77
2023/12/07 05:46:07;;;;;;;16.48;10.85;;;;;;;5.86;69.85;94658.72;5064413;28;20021;-77
2023/12/07 05:48:32;;;;;;;17.13;11.07;;;;;;;5.90;69.62;94658.63;5066126;28;20016;-77
2023/12/07 05:50:58;;;;;;;17.85;10.80;;;;;;;5.87;69.68;94659.47;5063886;28;20391;-77
2023/12/07 05:53:24;;;;;;;16.88;11.07;;;;;;;5.86;69.77;94653.25;5066666;28;20082;-76
2023/12/07 05:55:50;;;;;;;16.20;11.18;;;;;;;5.85;69.83;94668.09;5065234;28;20396;-76
2023/12/07 05:58:17;;;;;;;19.08;11.43;;;;;;;5.88;69.78;94671.94;5065743;28;20032;-77
2023/12/07 06:00:43;;;;;;;19.17;12.10;;;;;;;5.92;69.77;94661.78;5065527;28;20090;-76
2023/12/07 06:03:09;;;;;;;17.52;10.77;;;;;;;5.94;69.47;94664.09;5065451;28;20033;-75
2023/12/07 06:05:37;;;;;;;16.25;10.93;;;;;;;5.92;69.90;94671.91;5064539;28;20073;-77
2023/12/07 06:08:04;;;;;;;17.13;10.93;;;;;;;5.96;69.67;94673.38;5065125;28;20135;-75
2023/12/07 06:10:29;;;;;;;17.42;10.82;;;;;;;5.96;69.45;94678.84;5065681;28;20382;-76
2023/12/07 06:12:56;;;;;;;17.17;9.98;;;;;;;5.93;69.42;94671.50;5063721;28;20024;-77
2023/12/07 06:15:22;;;;;;;18.73;10.98;;;;;;;5.96;69.20;94673.38;5064128;28;20020;-75
2023/12/07 06:17:47;;;;;;;18.58;11.43;;;;;;;5.99;69.41;94680.75;5062495;28;20082;-76
2023/12/07 06:20:13;;;;;;;17.23;11.38;;;;;;;5.96;69.77;94667.94;5063913;28;20024;-76
2023/12/07 06:22:38;;;;;;;20.92;12.35;;;;;;;5.99;69.52;94677.25;5065069;28;20034;-76
2023/12/07 06:25:04;;;;;;;16.08;10.27;;;;;;;6.07;69.30;94674.00;5065145;28;20111;-77
2023/12/07 06:27:29;;;;;;;14.70;10.05;;;;;;;6.05;69.41;94672.88;5068197;28;20044;-77
2023/12/07 06:29:55;;;;;;;18.00;11.05;;;;;;;6.04;69.31;94680.28;5064926;28;20077;-77
2023/12/07 06:32:20;;;;;;;19.23;12.40;;;;;;;6.04;69.13;94679.53;5066130;28;20059;-75
2023/12/07 06:34:46;;;;;;;16.90;10.60;;;;;;;6.10;68.92;94678.63;5064662;28;20491;-76
2023/12/07 06:37:11;;;;;;;19.75;11.70;;;;;;;6.09;69.46;94676.34;5065983;28;20025;-76
2023/12/07 06:39:37;;;;;;;15.88;10.25;;;;;;;6.11;69.19;94684.88;5076777;28;20035;-76
2023/12/07 06:42:02;;;;;;;17.20;11.20;;;;;;;6.13;69.31;94690.66;5070352;28;20028;-76
2023/12/07 06:44:28;;;;;;;16.23;9.93;;;;;;;6.15;69.30;94696.50;5081719;28;20522;-77
2023/12/07 06:46:53;;;;;;;14.45;9.90;;;;;;;6.21;69.05;94697.56;5074458;28;20047;-77
2023/12/07 06:49:19;;;;;;;13.63;8.85;;;;;;;6.26;68.81;94696.34;5062874;28;20045;-77
2023/12/07 06:51:44;;;;;;;14.57;9.15;;;;;;;6.25;68.57;94697.50;5076941;28;20025;-77
2023/12/07 06:54:10;;;;;;;15.05;9.40;;;;;;;6.30;68.70;94699.75;5064277;28;20115;-77
2023/12/07 06:56:35;;;;;;;15.50;9.70;;;;;;;6.30;68.56;94700.53;5065055;28;20483;-77
2023/12/07 06:59:01;;;;;;;15.90;10.15;;;;;;;6.34;68.50;94698.53;5065041;28;20544;-77
2023/12/07 07:01:26;;;;;;;15.55;10.07;;;;;;;6.39;68.36;94700.78;5065774;28;20060;-77
2023/12/07 07:03:51;;;;;;;17.90;10.63;;;;;;;6.46;68.13;94696.38;5068630;28;20052;-77
2023/12/07 07:06:17;;;;;;;16.48;11.20;;;;;;;6.40;68.36;94698.81;5069461;28;20526;-78
2023/12/07 07:08:42;;;;;;;20.92;13.63;;;;;;;6.38;68.55;94701.22;5067081;28;20030;-77
2023/12/07 07:11:14;;;;;;;15.07;10.40;;;;;;;6.44;67.70;94706.97;5068277;28;20073;-76
2023/12/07 07:13:40;;;;;;;13.45;8.70;;;;;;;6.43;67.93;94700.75;5066882;28;20483;-77
2023/12/07 07:16:07;;;;;;;15.40;9.10;;;;;;;6.38;68.23;94707.44;5067437;28;20048;-76
2023/12/07 07:18:33;;;;;;;13.20;8.13;;;;;;;6.42;68.11;94707.38;5068613;28;20429;-78
2023/12/07 07:20:58;;;;;;;15.38;8.95;;;;;;;6.38;67.99;94712.91;5068590;28;20024;-78
2023/12/07 07:23:23;;;;;;;13.70;8.32;;;;;;;6.24;68.18;94709.63;5067967;28;20025;-77
2023/12/07 07:25:49;;;;;;;11.57;7.70;;;;;;;6.25;68.40;94716.59;5066854;28;20103;-77
2023/12/07 07:28:14;;;;;;;12.15;7.63;;;;;;;6.29;68.48;94712.66;5069252;28;20024;-78
2023/12/07 07:30:39;;;;;;;13.15;8.55;;;;;;;6.27;68.50;94723.22;5067885;28;20402;-78
2023/12/07 07:33:05;;;;;;;13.60;8.85;;;;;;;6.29;68.26;94717.34;5068598;28;20054;-75
2023/12/07 07:35:31;;;;;;;8.82;6.45;;;;;;;6.24;67.99;94726.00;5066851;28;20028;-76
2023/12/07 07:37:56;;;;;;;10.20;5.88;;;;;;;6.23;67.61;94730.69;5066710;28;20417;-76
2023/12/07 07:40:22;;;;;;;7.97;5.53;;;;;;;6.24;66.87;94726.00;5068474;28;20060;-76
2023/12/07 07:42:47;;;;;;;8.13;5.25;;;;;;;6.17;67.18;94732.34;5049606;28;20111;-76
2023/12/07 07:45:12;;;;;;;9.02;5.90;;;;;;;6.16;66.92;94730.03;5068716;28;20543;-77
2023/12/07 07:47:38;;;;;;;9.20;6.35;;;;;;;6.10;66.78;94732.44;5068007;28;20017;-76
2023/12/07 07:50:05;;;;;;;8.95;6.00;;;;;;;6.04;67.08;94736.84;5067316;28;20835;-77
2023/12/07 07:52:34;;;;;;;7.72;4.53;;;;;;;6.03;67.26;94738.03;5049950;28;20085;-77
2023/12/07 07:55:04;;;;;;;4.97;3.80;;;;;;;5.94;66.96;94729.56;5066764;28;20116;-76
2023/12/07 07:57:30;;;;;;;5.28;3.97;;;;;;;5.99;67.03;94743.53;5066718;28;20406;-76
2023/12/07 07:59:57;;;;;;;6.95;4.50;;;;;;;5.96;66.75;94752.50;5067237;28;20059;-76
2023/12/07 08:02:22;;;;;;;5.18;3.75;;;;;;;5.96;66.57;94749.00;5068325;28;20402;-76
2023/12/07 08:04:47;;;;;;;5.80;3.60;;;;;;;5.92;66.55;94748.31;5067201;28;20024;-77
2023/12/07 08:07:13;;;;;;;5.60;3.83;;;;;;;5.87;66.91;94746.78;5067057;28;20182;-76
2023/12/07 08:09:38;;;;;;;7.80;4.40;;;;;;;5.82;66.73;94764.38;5066947;28;20519;-77
2023/12/07 08:12:04;;;;;;;8.38;5.13;;;;;;;5.79;66.56;94759.75;5067713;28;20021;-77
2023/12/07 08:14:30;;;;;;;6.95;3.92;;;;;;;5.77;66.44;94758.59;5067614;28;20025;-78
2023/12/07 08:16:55;;;;;;;6.70;4.22;;;;;;;5.69;66.62;94763.38;5067264;28;20032;-76
2023/12/07 08:19:21;;;;;;;5.57;4.38;;;;;;;5.64;66.69;94765.78;5066632;28;20415;-77
2023/12/07 08:21:46;;;;;;;8.13;4.32;;;;;;;5.56;66.64;94760.44;5066682;28;20029;-76
2023/12/07 08:24:12;;;;;;;5.93;4.20;;;;;;;5.51;66.57;94766.34;5066560;28;20055;-76
2023/12/07 08:26:38;;;;;;;7.75;4.63;;;;;;;5.50;66.89;94772.19;5066778;28;20137;-77
2023/12/07 08:29:04;;;;;;;9.38;4.75;;;;;;;5.46;66.60;94766.78;5067752;28;20487;-76
2023/12/07 08:31:29;;;;;;;7.10;4.00;;;;;;;5.46;66.53;94774.97;5065654;28;20035;-77
2023/12/07 08:33:55;;;;;;;5.40;3.65;;;;;;;5.55;65.96;94772.50;5067172;28;20051;-77
2023/12/07 08:36:20;;;;;;;5.07;3.13;;;;;;;5.58;65.84;94771.69;5067338;28;20069;-78
2023/12/07 08:38:46;;;;;;;5.40;3.30;;;;;;;5.49;65.75;94768.69;5066778;28;20029;-76
2023/12/07 08:41:11;;;;;;;4.03;2.92;;;;;;;5.52;65.61;94778.00;5067670;28;20457;-78
2023/12/07 08:43:36;;;;;;;5.90;3.60;;;;;;;5.50;65.96;94774.91;5065209;28;20028;-77
2023/12/07 08:46:03;;;;;;;5.22;3.15;;;;;;;5.49;65.50;94785.03;5067612;28;20401;-75
2023/12/07 08:48:28;;;;;;;5.63;3.42;;;;;;;5.42;65.73;94785.13;5066645;28;20043;-77
2023/12/07 08:50:54;;;;;;;7.82;3.30;;;;;;;5.37;65.83;94771.94;5066915;28;20107;-78
2023/12/07 08:53:19;;;;;;;5.82;4.50;;;;;;;5.26;66.04;94780.22;5065575;28;20505;-77
2023/12/07 08:55:45;;;;;;;4.45;2.70;;;;;;;5.24;66.19;94781.84;5066854;28;20024;-77
2023/12/07 08:58:10;;;;;;;3.67;2.90;;;;;;;5.17;66.43;94774.50;5065786;28;20027;-76
2023/12/07 09:00:38;;;;;;;7.47;3.92;;;;;;;5.16;66.27;94786.59;5066441;28;20070;-77
2023/12/07 09:03:03;;;;;;;8.93;4.75;;;;;;;5.10;66.54;94784.69;5065765;28;20506;-76
2023/12/07 09:05:29;;;;;;;9.52;4.85;;;;;;;5.16;66.64;94788.53;5066413;28;20040;-77
2023/12/07 09:07:56;;;;;;;5.80;3.60;;;;;;;5.16;66.42;94785.78;5065453;28;20029;-77
2023/12/07 09:10:21;;;;;;;7.60;3.65;;;;;;;5.12;66.63;94788.56;5066197;28;20035;-77
2023/12/07 09:12:47;;;;;;;5.38;3.17;;;;;;;5.06;66.48;94779.28;5065282;28;20029;-77
2023/12/07 09:15:12;;;;;;;4.38;2.78;;;;;;;5.07;66.63;94784.34;5066995;28;20027;-77
2023/12/07 09:17:38;;;;;;;3.85;2.92;;;;;;;5.03;66.72;94780.09;5066378;28;20017;-77
2023/12/07 09:20:05;;;;;;;3.88;2.38;;;;;;;4.95;66.83;94779.41;5066837;28;20032;-77
2023/12/07 09:22:30;;;;;;;3.55;2.60;;;;;;;4.92;66.96;94771.25;5065949;28;20029;-76
2023/12/07 09:24:56;;;;;;;3.38;2.50;;;;;;;4.94;67.02;94779.81;5066078;28;20410;-77
2023/12/07 09:27:22;;;;;;;4.63;2.97;;;;;;;4.88;67.21;94782.19;5065701;28;20082;-76
2023/12/07 09:29:48;;;;;;;3.65;2.72;;;;;;;4.86;67.28;94789.97;5066524;28;20036;-77
2023/12/07 09:32:14;;;;;;;5.22;3.50;;;;;;;4.86;67.55;94779.09;5066641;28;20402;-78
2023/12/07 09:34:39;;;;;;;3.00;2.38;;;;;;;4.80;67.58;94767.84;5066218;28;21190;-77
2023/12/07 09:37:08;;;;;;;3.72;2.47;;;;;;;4.79;67.54;94784.59;5066327;28;20033;-77
2023/12/07 09:39:34;;;;;;;3.50;2.38;;;;;;;4.79;67.37;94779.94;5064524;28;20066;-77
2023/12/07 09:42:00;;;;;;;2.95;2.47;;;;;;;4.83;67.60;94784.59;5066133;28;20032;-77
2023/12/07 09:44:26;;;;;;;2.97;1.88;;;;;;;4.65;67.41;94771.13;5066026;28;20020;-77
2023/12/07 09:46:51;;;;;;;2.22;1.63;;;;;;;4.61;67.76;94790.22;5064821;28;20112;-77
2023/12/07 09:49:17;;;;;;;3.50;2.10;;;;;;;4.63;67.58;94793.28;5064328;28;20025;-77
2023/12/07 09:51:43;;;;;;;3.08;2.30;;;;;;;4.55;67.93;94780.94;5064580;28;20270;-77
2023/12/07 09:54:09;;;;;;;2.67;1.83;;;;;;;4.53;67.56;94792.22;5047637;28;20476;-76
2023/12/07 09:56:34;;;;;;;1.95;1.50;;;;;;;4.52;67.82;94784.44;5064456;28;20032;-76
2023/12/07 09:59:00;;;;;;;3.60;2.28;;;;;;;4.53;67.80;94786.78;5065888;28;20032;-77
2023/12/07 10:01:30;;;;;;;2.53;1.65;;;;;;;4.57;67.46;94783.25;5065808;28;20017;-77
2023/12/07 10:04:28;;;;;;;3.67;2.03;;;;;;;4.58;67.86;94795.66;5069654;28;20028;-77
2023/12/07 10:06:54;;;;;;;3.15;2.13;;;;;;;4.47;67.58;94788.38;5046020;28;20407;-78
2023/12/07 10:09:21;;;;;;;3.80;2.20;;;;;;;4.51;67.58;94793.78;5047130;28;20771;-77
2023/12/07 10:11:46;;;;;;;2.72;1.98;;;;;;;4.45;67.45;94788.00;5043697;28;20039;-77
2023/12/07 10:14:12;;;;;;;4.03;2.40;;;;;;;4.37;67.47;94791.97;5026672;28;20036;-77
2023/12/07 10:16:37;;;;;;;6.45;3.67;;;;;;;4.38;67.51;94793.50;5044137;28;20055;-78
2023/12/07 10:19:13;;;;;;;3.72;2.75;;;;;;;4.34;68.00;94787.31;5042809;28;20037;-76
2023/12/07 10:21:39;;;;;;;6.22;2.35;;;;;;;4.42;67.61;94785.31;5043432;28;20029;-76
2023/12/07 10:24:05;;;;;;;2.80;2.20;;;;;;;4.39;67.41;94784.16;5026370;28;20056;-76
2023/12/07 10:26:30;;;;;;;3.08;1.90;;;;;;;4.42;67.11;94788.81;5043310;28;20392;-77
2023/12/07 10:28:56;;;;;;;5.07;2.40;;;;;;;4.44;67.26;94786.44;5026403;28;20048;-77
2023/12/07 10:31:21;;;;;;;4.78;2.58;;;;;;;4.49;66.81;94790.69;5026780;28;20065;-77
2023/12/07 10:33:50;;;;;;;4.13;2.13;;;;;;;4.49;66.87;94788.75;5026595;28;20064;-77
2023/12/07 10:36:15;;;;;;;4.00;2.08;;;;;;;4.46;67.06;94784.09;5027574;28;20164;-76
2023/12/07 10:38:45;;;;;;;2.28;1.83;;;;;;;4.38;67.60;94781.84;5047672;28;20037;-77
2023/12/07 10:41:12;;;;;;;3.25;2.20;;;;;;;4.37;67.41;94775.63;5030834;28;20129;-76
2023/12/07 10:43:42;;;;;;;4.15;2.35;;;;;;;4.42;66.98;94782.59;5067282;28;20047;-76
2023/12/07 10:46:09;;;;;;;4.97;2.97;;;;;;;4.40;66.98;94785.69;5069938;28;20025;-76
2023/12/07 10:48:35;;;;;;;5.85;3.00;;;;;;;4.39;67.31;94778.72;5069328;28;20051;-77
2023/12/07 10:51:03;;;;;;;6.32;2.33;;;;;;;4.44;66.91;94780.22;5068202;28;20036;-77
2023/12/07 10:53:33;;;;;;;5.22;2.78;;;;;;;4.41;67.07;94786.47;5068121;28;20063;-76
2023/12/07 10:56:01;;;;;;;7.32;3.97;;;;;;;4.40;66.81;94779.47;5068076;28;20498;-76
2023/12/07 10:58:27;;;;;;;5.20;2.97;;;;;;;4.39;66.72;94788.81;5069149;28;20043;-75
2023/12/07 11:00:53;;;;;;;4.32;2.42;;;;;;;4.41;66.70;94784.50;5069153;28;20033;-77
2023/12/07 11:03:19;;;;;;;9.38;4.45;;;;;;;4.42;66.73;94783.38;5067783;28;20024;-77
2023/12/07 11:05:46;;;;;;;6.35;3.00;;;;;;;4.41;66.41;94800.06;5067443;28;20414;-75
2023/12/07 11:08:31;;;;;;;4.93;2.95;;;;;;;4.32;66.68;94795.09;5067831;28;20035;-78
2023/12/07 11:11:08;;;;;;;5.30;2.95;;;;;;;4.26;66.90;94793.97;5068415;28;20097;-76
2023/12/07 11:13:37;;;;;;;5.88;3.75;;;;;;;4.25;67.01;94790.47;5067769;28;20576;-77
2023/12/07 11:16:03;;;;;;;9.68;3.55;;;;;;;4.17;67.40;94778.09;5067501;28;20032;-76
2023/12/07 11:18:29;;;;;;;4.55;2.72;;;;;;;4.17;67.39;94793.63;5050995;28;20090;-78
2023/12/07 11:20:55;;;;;;;12.52;5.32;;;;;;;4.12;67.68;94777.72;5067409;28;20062;-78
2023/12/07 11:23:21;;;;;;;10.23;5.25;;;;;;;4.20;67.73;94787.41;5069170;28;20115;-77
2023/12/07 11:25:47;;;;;;;6.07;3.53;;;;;;;4.21;67.20;94787.00;5069372;28;20169;-77
2023/12/07 11:28:13;;;;;;;10.45;4.93;;;;;;;4.23;67.11;94784.66;5067330;28;20095;-76
2023/12/07 11:30:42;;;;;;;6.35;3.78;;;;;;;4.29;66.96;94789.66;5067797;28;20021;-75